Time;durP1;ratioP1;P1;durP2;ratioP2;P2;SDS_P1;SDS_P2;PMS_P1;PMS_P2;Temp;Humidity;BMP_temperature;BMP_pressure;BME280_temperature;BME280_humidity;BME280_pressure;Samples;Min_cycle;Max_cycle;Signal;HPM_P1;HPM_P2
2023/03/17 00:01:09;;;;;;;13.25;4.72;;;7.60;99.90;;;;;;5094544;28;20392;-75
2023/03/17 00:03:39;;;;;;;10.23;4.07;;;7.60;99.90;;;;;;5094116;28;20048;-75
2023/03/17 00:06:05;;;;;;;12.38;4.80;;;7.60;99.90;;;;;;5094395;28;20039;-76
2023/03/17 00:08:33;;;;;;;14.93;4.88;;;7.60;99.90;;;;;;5095353;28;20044;-75
2023/03/17 00:10:59;;;;;;;13.65;5.10;;;7.60;99.90;;;;;;5093564;28;20094;-73
2023/03/17 00:13:25;;;;;;;16.45;4.95;;;7.60;99.90;;;;;;5095957;28;20380;-73
2023/03/17 00:15:55;;;;;;;11.18;4.60;;;7.60;99.90;;;;;;5093911;28;20055;-74
2023/03/17 00:18:22;;;;;;;13.20;4.95;;;7.60;99.90;;;;;;5093858;28;20133;-74
2023/03/17 00:20:48;;;;;;;13.75;4.78;;;7.60;99.90;;;;;;5094065;28;20051;-75
2023/03/17 00:23:22;;;;;;;11.98;4.65;;;7.60;99.90;;;;;;5094836;28;20135;-75
2023/03/17 00:25:49;;;;;;;14.63;4.90;;;7.60;99.90;;;;;;5093616;28;20040;-74
2023/03/17 00:28:18;;;;;;;11.57;4.60;;;7.70;99.90;;;;;;5094941;28;20043;-75
2023/03/17 00:30:44;;;;;;;15.13;5.10;;;7.70;99.90;;;;;;5094102;28;20083;-75
2023/03/17 00:33:10;;;;;;;20.98;5.40;;;7.70;99.90;;;;;;5093747;28;20461;-75
2023/03/17 00:35:37;;;;;;;12.97;5.43;;;8.20;99.90;;;;;;5093834;28;20086;-75
2023/03/17 00:38:03;;;;;;;14.35;4.55;;;7.80;99.90;;;;;;5093326;28;20511;-74
2023/03/17 00:40:29;;;;;;;13.90;5.60;;;7.80;99.90;;;;;;5094924;28;20048;-75
2023/03/17 00:42:58;;;;;;;12.32;4.65;;;7.70;99.90;;;;;;5094864;28;20122;-75
2023/03/17 00:45:25;;;;;;;15.40;5.00;;;7.70;99.90;;;;;;5095068;28;20505;-73
2023/03/17 00:47:54;;;;;;;10.55;4.50;;;7.70;99.90;;;;;;5093999;28;20048;-75
2023/03/17 00:50:23;;;;;;;12.75;4.78;;;7.70;99.90;;;;;;5094495;28;20079;-76
2023/03/17 00:52:51;;;;;;;14.15;4.63;;;7.60;99.90;;;;;;5094506;28;20048;-74
2023/03/17 00:55:18;;;;;;;12.85;4.18;;;7.60;99.90;;;;;;5094852;28;20075;-75
2023/03/17 00:57:46;;;;;;;13.43;5.72;;;7.60;99.90;;;;;;5093306;28;20403;-75
2023/03/17 01:00:25;;;;;;;16.65;4.50;;;7.50;99.90;;;;;;5093529;28;20044;-75
2023/03/17 01:02:52;;;;;;;10.50;4.22;;;7.50;99.90;;;;;;5095379;28;20043;-76
2023/03/17 01:05:19;;;;;;;10.88;4.05;;;7.40;99.90;;;;;;5094803;28;20519;-78
2023/03/17 01:07:51;;;;;;;17.55;4.78;;;7.50;99.90;;;;;;5095847;28;20123;-75
2023/03/17 01:10:21;;;;;;;12.05;4.57;;;7.50;99.90;;;;;;5093900;28;20156;-75
2023/03/17 01:12:48;;;;;;;12.88;5.00;;;7.50;99.90;;;;;;5094911;28;20086;-75
2023/03/17 01:15:14;;;;;;;12.60;4.57;;;7.50;99.90;;;;;;5093268;28;20396;-73
2023/03/17 01:17:40;;;;;;;11.30;4.45;;;7.60;99.90;;;;;;5076990;28;20364;-74
2023/03/17 01:20:12;;;;;;;12.03;4.70;;;7.50;99.90;;;;;;5093414;28;20042;-75
2023/03/17 01:22:37;;;;;;;13.15;4.38;;;7.50;99.90;;;;;;5075840;28;20044;-75
2023/03/17 01:25:03;;;;;;;16.30;4.97;;;7.60;99.90;;;;;;5093885;28;20101;-75
2023/03/17 01:27:35;;;;;;;12.50;4.63;;;7.60;99.90;;;;;;5092672;28;20441;-74
2023/03/17 01:30:02;;;;;;;12.48;4.28;;;7.60;99.90;;;;;;5093479;28;20036;-74
2023/03/17 01:32:28;;;;;;;;;;;7.60;99.90;;;;;;5092914;28;20055;-75
2023/03/17 01:34:53;;;;;;;11.93;5.03;;;7.60;99.90;;;;;;5092955;28;19924;-73
2023/03/17 01:37:20;;;;;;;13.40;4.13;;;7.60;99.90;;;;;;5094377;28;20043;-75
2023/03/17 01:39:46;;;;;;;9.50;4.40;;;7.60;99.90;;;;;;5093959;28;20123;-75
2023/03/17 01:42:12;;;;;;;10.57;4.47;;;7.60;99.90;;;;;;5093464;28;20044;-74
2023/03/17 01:45:07;;;;;;;14.88;4.93;;;7.60;99.90;;;;;;5093081;28;20126;-74
2023/03/17 01:47:33;;;;;;;10.23;4.30;;;7.60;99.90;;;;;;5093893;28;20171;-74
2023/03/17 01:50:06;;;;;;;14.18;4.47;;;7.60;99.90;;;;;;5093973;28;20044;-74
2023/03/17 01:52:35;;;;;;;12.55;4.60;;;7.50;99.90;;;;;;5093191;28;20050;-75
2023/03/17 01:55:00;;;;;;;13.57;4.85;;;7.60;99.90;;;;;;5094113;28;20036;-74
2023/03/17 01:57:38;;;;;;;12.10;4.97;;;7.60;99.90;;;;;;5093928;28;20100;-77
2023/03/17 02:00:04;;;;;;;11.98;4.63;;;7.50;99.90;;;;;;5092918;28;20043;-74
2023/03/17 02:02:33;;;;;;;12.68;4.47;;;7.50;99.90;;;;;;5092696;28;20506;-75
2023/03/17 02:04:59;;;;;;;10.63;4.70;;;7.50;99.90;;;;;;5092733;28;20047;-75
2023/03/17 02:07:26;;;;;;;12.80;4.60;;;7.40;99.90;;;;;;5093216;28;20044;-75
2023/03/17 02:09:53;;;;;;;12.85;4.68;;;7.40;99.90;;;;;;5092432;28;20059;-76
2023/03/17 02:12:21;;;;;;;13.75;4.32;;;7.40;99.90;;;;;;5093999;28;20056;-75
2023/03/17 02:14:47;;;;;;;12.85;4.72;;;7.40;99.90;;;;;;5092920;28;20558;-75
2023/03/17 02:17:13;;;;;;;11.20;4.55;;;7.40;99.90;;;;;;5092596;28;20123;-77
2023/03/17 02:19:39;;;;;;;14.40;4.90;;;7.30;99.90;;;;;;5076041;28;20051;-75
2023/03/17 02:22:04;;;;;;;13.75;4.72;;;7.40;99.90;;;;;;5093193;28;20048;-77
2023/03/17 02:24:43;;;;;;;13.15;4.78;;;7.40;99.90;;;;;;5092816;28;20055;-77
2023/03/17 02:27:26;;;;;;;16.25;5.32;;;7.40;99.90;;;;;;5092907;28;20048;-74
2023/03/17 02:29:52;;;;;;;14.07;4.55;;;7.40;99.90;;;;;;5092937;28;20101;-75
2023/03/17 02:32:19;;;;;;;12.63;5.43;;;7.40;99.90;;;;;;5093117;28;20048;-76
2023/03/17 02:34:46;;;;;;;12.15;4.45;;;7.40;99.90;;;;;;5092951;28;20050;-75
2023/03/17 02:37:12;;;;;;;10.80;4.55;;;7.40;99.90;;;;;;5091778;28;20044;-75
2023/03/17 02:39:38;;;;;;;14.27;4.43;;;7.40;99.90;;;;;;5093061;28;20094;-76
2023/03/17 02:42:05;;;;;;;12.60;4.20;;;7.30;99.90;;;;;;5075226;28;20048;-76
2023/03/17 02:44:31;;;;;;;16.55;4.68;;;7.30;99.90;;;;;;5097320;28;20058;-76
2023/03/17 02:46:57;;;;;;;12.77;4.40;;;7.30;99.90;;;;;;5097189;28;20056;-76
2023/03/17 02:49:24;;;;;;;11.43;4.20;;;7.30;99.90;;;;;;5097660;28;20044;-74
2023/03/17 02:51:51;;;;;;;11.68;4.18;;;7.30;99.90;;;;;;5096902;28;20040;-75
2023/03/17 02:54:16;;;;;;;11.57;4.60;;;7.20;99.90;;;;;;5096300;28;20060;-75
2023/03/17 02:56:42;;;;;;;11.77;4.50;;;7.20;99.90;;;;;;5096569;28;20119;-78
2023/03/17 02:59:08;;;;;;;12.38;4.22;;;7.20;99.90;;;;;;5095610;28;20036;-76
2023/03/17 03:01:34;;;;;;;11.55;4.45;;;7.20;99.90;;;;;;5096655;28;20093;-75
2023/03/17 03:04:00;;;;;;;10.60;3.97;;;7.20;99.90;;;;;;5095333;28;20044;-76
2023/03/17 03:06:25;;;;;;;11.57;4.53;;;7.20;99.90;;;;;;5095287;28;20044;-74
2023/03/17 03:08:52;;;;;;;12.07;4.28;;;7.20;99.90;;;;;;5096424;28;20048;-74
2023/03/17 03:11:18;;;;;;;12.02;4.63;;;7.20;99.90;;;;;;5115786;28;20097;-75
2023/03/17 03:13:44;;;;;;;14.18;4.25;;;7.20;99.90;;;;;;5116885;28;20047;-74
2023/03/17 03:16:09;;;;;;;12.60;4.25;;;7.20;99.90;;;;;;5098776;28;20551;-77
2023/03/17 03:18:36;;;;;;;11.85;4.65;;;7.10;99.90;;;;;;5116759;28;20044;-78
2023/03/17 03:21:02;;;;;;;13.52;4.30;;;7.10;99.90;;;;;;5099726;28;20126;-77
2023/03/17 03:23:28;;;;;;;10.45;4.50;;;7.10;99.90;;;;;;5117671;28;20349;-76
2023/03/17 03:25:54;;;;;;;10.25;4.00;;;7.10;99.90;;;;;;5098782;28;20058;-76
2023/03/17 03:28:20;;;;;;;10.18;4.60;;;7.10;99.90;;;;;;5116637;28;20040;-77
2023/03/17 03:30:46;;;;;;;13.93;4.70;;;7.00;99.90;;;;;;5116585;28;20058;-76
2023/03/17 03:33:14;;;;;;;12.73;4.60;;;7.00;99.90;;;;;;5116512;28;20127;-77
2023/03/17 03:35:40;;;;;;;16.70;4.80;;;7.00;99.90;;;;;;5098480;28;20058;-77
2023/03/17 03:38:07;;;;;;;12.40;4.40;;;7.00;99.90;;;;;;5116718;28;20051;-76
2023/03/17 03:40:34;;;;;;;15.75;4.47;;;7.00;99.90;;;;;;5082421;28;20497;-75
2023/03/17 03:43:00;;;;;;;14.88;5.18;;;7.00;99.90;;;;;;5116538;28;20494;-75
2023/03/17 03:45:26;;;;;;;17.08;5.30;;;7.00;99.90;;;;;;5081529;28;20050;-74
2023/03/17 03:47:52;;;;;;;18.05;4.97;;;7.00;99.90;;;;;;5116336;28;20074;-75
2023/03/17 03:50:18;;;;;;;13.68;4.50;;;7.00;99.90;;;;;;5116617;28;20252;-77
2023/03/17 03:52:43;;;;;;;13.32;4.38;;;7.00;99.90;;;;;;5098899;28;20053;-76
2023/03/17 03:55:10;;;;;;;13.82;4.80;;;7.00;99.90;;;;;;5097404;28;20130;-75
2023/03/17 03:57:35;;;;;;;11.40;4.63;;;6.90;99.90;;;;;;5081345;28;20040;-75
2023/03/17 04:00:02;;;;;;;13.73;4.78;;;6.90;99.90;;;;;;5080307;28;20372;-77
2023/03/17 04:02:28;;;;;;;16.33;4.40;;;6.90;99.90;;;;;;5115897;28;20447;-76
2023/03/17 04:04:54;;;;;;;11.00;4.13;;;7.00;99.90;;;;;;5115793;28;20048;-75
2023/03/17 04:07:22;;;;;;;12.45;4.03;;;6.90;99.90;;;;;;5115688;28;20051;-74
2023/03/17 04:09:48;;;;;;;12.10;4.47;;;6.90;99.90;;;;;;5115407;28;20151;-76
2023/03/17 04:12:15;;;;;;;14.68;3.80;;;6.90;99.90;;;;;;5081572;28;20134;-75
2023/03/17 04:14:41;;;;;;;13.75;4.85;;;7.00;99.90;;;;;;5115761;28;20086;-78
2023/03/17 04:17:07;;;;;;;13.98;4.63;;;7.00;99.90;;;;;;5115598;28;20039;-75
2023/03/17 04:19:33;;;;;;;9.60;3.90;;;6.90;99.90;;;;;;5115453;28;20058;-76
2023/03/17 04:22:00;;;;;;;12.98;4.88;;;6.90;99.90;;;;;;5097398;28;20416;-75
2023/03/17 04:24:26;;;;;;;13.02;4.45;;;6.90;99.90;;;;;;5115198;28;20526;-77
2023/03/17 04:26:52;;;;;;;14.73;4.60;;;6.90;99.90;;;;;;5098316;28;20384;-76
2023/03/17 04:29:18;;;;;;;15.27;4.90;;;6.80;99.90;;;;;;5115383;28;20051;-76
2023/03/17 04:31:45;;;;;;;11.63;4.57;;;6.80;99.90;;;;;;5097186;28;20094;-74
2023/03/17 04:34:17;;;;;;;11.13;3.80;;;6.90;99.90;;;;;;5114965;28;20490;-76
2023/03/17 04:36:47;;;;;;;15.27;4.35;;;6.90;99.90;;;;;;5097643;28;20092;-75
2023/03/17 04:39:14;;;;;;;15.60;4.50;;;6.90;99.90;;;;;;5097320;28;20051;-75
2023/03/17 04:41:40;;;;;;;11.43;4.22;;;6.80;99.90;;;;;;5115224;28;20047;-77
2023/03/17 04:44:06;;;;;;;10.80;4.10;;;6.80;99.90;;;;;;5115811;28;20051;-76
2023/03/17 04:46:33;;;;;;;12.52;3.90;;;6.80;99.90;;;;;;5115159;28;20132;-76
2023/03/17 04:49:01;;;;;;;13.32;4.63;;;6.80;99.90;;;;;;5115020;28;20044;-75
2023/03/17 04:51:27;;;;;;;14.38;4.32;;;6.90;99.90;;;;;;5096496;28;20523;-75
2023/03/17 04:53:53;;;;;;;10.68;4.25;;;6.90;99.90;;;;;;5114653;28;20047;-77
2023/03/17 04:56:19;;;;;;;12.77;4.28;;;6.90;99.90;;;;;;5114749;28;20047;-77
2023/03/17 04:58:45;;;;;;;11.40;4.40;;;6.90;99.90;;;;;;5114862;28;20044;-75
2023/03/17 05:01:13;;;;;;;13.63;4.78;;;7.00;99.90;;;;;;5114382;28;20475;-75
2023/03/17 05:03:39;;;;;;;19.88;6.28;;;7.00;99.90;;;;;;5114941;28;20043;-74
2023/03/17 05:06:05;;;;;;;15.40;5.28;;;7.00;99.90;;;;;;5113964;28;20046;-75
2023/03/17 05:08:31;;;;;;;15.68;5.10;;;7.00;99.90;;;;;;5114629;28;20120;-75
2023/03/17 05:10:58;;;;;;;17.30;5.50;;;7.00;99.90;;;;;;5114309;28;20131;-76
2023/03/17 05:13:25;;;;;;;15.85;5.05;;;7.10;99.90;;;;;;5114553;28;20123;-76
2023/03/17 05:15:52;;;;;;;16.00;5.07;;;7.10;99.90;;;;;;5114483;28;20077;-74
2023/03/17 05:18:19;;;;;;;14.70;5.35;;;7.10;99.90;;;;;;5114384;28;20048;-75
2023/03/17 05:20:45;;;;;;;12.13;4.72;;;7.10;99.90;;;;;;5096406;28;20487;-75
2023/03/17 05:23:11;;;;;;;14.45;5.38;;;7.20;99.90;;;;;;5114989;28;20047;-76
2023/03/17 05:25:38;;;;;;;16.70;5.28;;;7.20;99.90;;;;;;5114259;28;20054;-75
2023/03/17 05:28:05;;;;;;;11.25;4.32;;;7.30;99.90;;;;;;5114959;28;20126;-77
2023/03/17 05:30:31;;;;;;;12.02;4.28;;;7.30;99.90;;;;;;5115033;28;20115;-78
2023/03/17 05:32:58;;;;;;;13.95;4.35;;;7.30;99.90;;;;;;5114287;28;20043;-77
2023/03/17 05:35:24;;;;;;;9.57;3.80;;;7.30;99.90;;;;;;5113865;28;20507;-76
2023/03/17 05:37:50;;;;;;;13.75;5.32;;;7.30;99.90;;;;;;5096414;28;20488;-76
2023/03/17 05:40:15;;;;;;;12.10;4.85;;;7.30;99.90;;;;;;5113910;28;20153;-77
2023/03/17 05:42:41;;;;;;;16.15;4.53;;;7.30;99.90;;;;;;5114022;28;20176;-76
2023/03/17 05:45:08;;;;;;;13.43;4.70;;;7.30;99.90;;;;;;5095850;28;20056;-76
2023/03/17 05:47:35;;;;;;;13.70;4.77;;;7.30;99.90;;;;;;5113807;28;20048;-76
2023/03/17 05:50:01;;;;;;;14.50;4.45;;;7.40;99.90;;;;;;5113966;28;20282;-75
2023/03/17 05:52:27;;;;;;;12.55;4.28;;;7.40;99.90;;;;;;5113938;28;20047;-74
2023/03/17 05:54:53;;;;;;;13.20;4.00;;;7.40;99.90;;;;;;5095750;28;20082;-76
2023/03/17 05:57:20;;;;;;;13.85;4.57;;;7.40;99.90;;;;;;5113615;28;20040;-74
2023/03/17 05:59:46;;;;;;;14.20;4.70;;;7.40;99.90;;;;;;5114048;28;20155;-76
2023/03/17 06:02:12;;;;;;;14.73;4.60;;;7.40;99.90;;;;;;5095843;28;20087;-76
2023/03/17 06:04:38;;;;;;;11.95;4.85;;;7.40;99.90;;;;;;5113828;28;20090;-75
2023/03/17 06:07:05;;;;;;;15.23;5.20;;;7.40;99.90;;;;;;5095972;28;20118;-77
2023/03/17 06:09:32;;;;;;;12.57;4.87;;;7.50;99.90;;;;;;5113630;28;20059;-76
2023/03/17 06:11:58;;;;;;;15.82;5.00;;;7.60;99.90;;;;;;5114385;28;20124;-75
2023/03/17 06:14:24;;;;;;;11.32;5.00;;;7.60;99.90;;;;;;5095557;28;20544;-76
2023/03/17 06:16:50;;;;;;;16.40;5.15;;;7.60;99.90;;;;;;5097653;28;20091;-76
2023/03/17 06:19:16;;;;;;;11.20;4.35;;;7.60;99.90;;;;;;5118767;28;20514;-77
2023/03/17 06:21:42;;;;;;;20.90;4.93;;;7.70;99.90;;;;;;5118353;28;20044;-74
2023/03/17 06:24:08;;;;;;;12.80;4.90;;;7.70;99.90;;;;;;5099631;28;20043;-74
2023/03/17 06:26:35;;;;;;;11.30;4.78;;;7.80;99.90;;;;;;5118360;28;20043;-74
2023/03/17 06:29:08;;;;;;;12.93;4.90;;;7.90;99.90;;;;;;5099673;28;20139;-76
2023/03/17 06:31:38;;;;;;;13.25;4.95;;;8.00;99.90;;;;;;5082912;28;20050;-76
2023/03/17 06:34:04;;;;;;;13.40;4.85;;;8.00;99.90;;;;;;5099627;28;20108;-76
2023/03/17 06:36:31;;;;;;;13.25;4.97;;;8.10;99.90;;;;;;5099149;28;20130;-74
2023/03/17 06:38:58;;;;;;;13.23;4.22;;;8.20;99.90;;;;;;5117421;28;20083;-75
2023/03/17 06:41:24;;;;;;;13.27;4.55;;;8.30;99.90;;;;;;5117515;28;20043;-75
2023/03/17 06:43:50;;;;;;;15.82;4.93;;;8.40;99.90;;;;;;5099462;28;20044;-76
2023/03/17 06:46:16;;;;;;;11.10;5.00;;;8.40;99.90;;;;;;5099185;28;20043;-75
2023/03/17 06:48:42;;;;;;;12.38;4.82;;;8.40;99.90;;;;;;5082988;28;20162;-75
2023/03/17 06:51:08;;;;;;;13.18;4.97;;;8.50;99.90;;;;;;5117771;28;20055;-74
2023/03/17 06:53:35;;;;;;;14.20;5.07;;;8.50;99.90;;;;;;5099051;28;20047;-74
2023/03/17 06:56:01;;;;;;;15.43;5.28;;;8.40;99.90;;;;;;5099053;28;20564;-76
2023/03/17 06:58:26;;;;;;;12.02;5.03;;;8.50;99.90;;;;;;5117223;28;20112;-75
2023/03/17 07:00:52;;;;;;;13.55;4.93;;;8.50;99.90;;;;;;5099741;28;20079;-77
2023/03/17 07:03:20;;;;;;;15.15;4.85;;;8.50;99.90;;;;;;5117015;28;20046;-73
2023/03/17 07:05:46;;;;;;;16.35;5.32;;;8.50;99.90;;;;;;5098592;28;20112;-75
2023/03/17 07:08:12;;;;;;;17.60;5.72;;;8.60;99.90;;;;;;5098638;28;20047;-75
2023/03/17 07:10:40;;;;;;;17.50;5.28;;;8.60;99.90;;;;;;5116671;28;20071;-75
2023/03/17 07:13:07;;;;;;;14.45;5.82;;;8.50;99.90;;;;;;5098611;28;20134;-75
2023/03/17 07:15:34;;;;;;;11.38;5.00;;;8.50;99.90;;;;;;5098647;28;20100;-76
2023/03/17 07:18:01;;;;;;;14.15;5.68;;;8.50;99.90;;;;;;5117285;28;20393;-76
2023/03/17 07:20:26;;;;;;;12.45;5.00;;;8.40;99.90;;;;;;5099007;28;20085;-75
2023/03/17 07:22:52;;;;;;;10.80;4.85;;;8.40;99.90;;;;;;5099190;28;20052;-76
2023/03/17 07:25:18;;;;;;;12.15;4.97;;;8.40;99.90;;;;;;5065685;28;20379;-75
2023/03/17 07:27:44;;;;;;;12.35;4.90;;;8.40;99.90;;;;;;5116658;28;20149;-77
2023/03/17 07:30:12;;;;;;;12.30;5.20;;;8.50;99.90;;;;;;5098385;28;20108;-75
2023/03/17 07:32:38;;;;;;;12.15;4.93;;;8.50;99.90;;;;;;5116966;28;20130;-75
2023/03/17 07:35:04;;;;;;;13.63;5.30;;;8.60;99.90;;;;;;5081568;28;20044;-76
2023/03/17 07:37:30;;;;;;;13.15;5.95;;;8.70;99.90;;;;;;5081313;28;20086;-75
2023/03/17 07:39:56;;;;;;;14.77;5.60;;;8.70;99.90;;;;;;5098453;28;20161;-75
2023/03/17 07:42:22;;;;;;;13.23;4.90;;;8.80;99.90;;;;;;5098309;28;20047;-75
2023/03/17 07:44:48;;;;;;;13.95;5.07;;;8.90;99.90;;;;;;5098352;28;20109;-75
2023/03/17 07:47:13;;;;;;;10.63;4.68;;;8.90;99.90;;;;;;5081641;28;20383;-75
2023/03/17 07:49:40;;;;;;;13.63;5.75;;;9.00;99.90;;;;;;5116905;28;20549;-74
2023/03/17 07:52:07;;;;;;;14.40;5.30;;;9.20;99.90;;;;;;5098147;28;20135;-74
2023/03/17 07:54:33;;;;;;;17.48;5.70;;;9.20;99.90;;;;;;5098553;28;20051;-73
2023/03/17 07:56:59;;;;;;;12.88;5.53;;;9.20;99.90;;;;;;5116499;28;20043;-74
2023/03/17 07:59:25;;;;;;;14.95;5.57;;;9.30;99.90;;;;;;5115977;28;20086;-76
2023/03/17 08:01:51;;;;;;;14.82;6.35;;;9.30;99.90;;;;;;5116608;28;20075;-76
2023/03/17 08:04:17;;;;;;;15.80;5.25;;;9.40;99.90;;;;;;5097597;28;20122;-75
2023/03/17 08:06:45;;;;;;;17.80;5.90;;;9.40;99.90;;;;;;5115985;28;20086;-75
2023/03/17 08:09:12;;;;;;;17.00;5.65;;;9.50;99.90;;;;;;5115565;28;20125;-77
2023/03/17 08:11:38;;;;;;;14.98;5.32;;;9.60;99.90;;;;;;5098450;28;20126;-76
2023/03/17 08:14:05;;;;;;;19.58;4.97;;;9.70;99.90;;;;;;5097451;28;20047;-75
2023/03/17 08:16:31;;;;;;;15.45;5.30;;;9.70;99.90;;;;;;5115647;28;20122;-75
2023/03/17 08:18:57;;;;;;;18.33;5.25;;;9.80;99.90;;;;;;5097378;28;20040;-77
2023/03/17 08:21:26;;;;;;;12.38;5.13;;;9.90;99.90;;;;;;5115724;28;20056;-75
2023/03/17 08:23:55;;;;;;;15.48;5.38;;;10.00;99.90;;;;;;5097170;28;20044;-77
2023/03/17 08:26:22;;;;;;;14.80;5.18;;;10.10;99.90;;;;;;5097389;28;20094;-74
2023/03/17 08:28:49;;;;;;;16.25;5.18;;;10.20;99.90;;;;;;5097421;28;20051;-74
2023/03/17 08:31:19;;;;;;;15.77;5.60;;;10.20;99.90;;;;;;5116074;28;20044;-75
2023/03/17 08:33:48;;;;;;;12.43;5.22;;;10.30;99.90;;;;;;5097221;28;20046;-74
2023/03/17 08:36:15;;;;;;;15.85;5.50;;;10.30;99.90;;;;;;5115872;28;20139;-74
2023/03/17 08:38:41;;;;;;;14.98;5.50;;;10.50;99.90;;;;;;5115152;28;20047;-77
2023/03/17 08:41:11;;;;;;;11.88;5.38;;;10.50;99.90;;;;;;5097127;28;20048;-76
2023/03/17 08:43:37;;;;;;;23.15;6.15;;;10.50;99.90;;;;;;5115118;28;20048;-75
2023/03/17 08:46:17;;;;;;;16.08;5.80;;;10.50;99.90;;;;;;5096894;28;20046;-75
2023/03/17 08:48:45;;;;;;;15.15;5.53;;;10.50;99.90;;;;;;5097232;28;20079;-74
2023/03/17 08:51:12;;;;;;;19.38;5.82;;;10.50;99.90;;;;;;5096864;28;20039;-76
2023/03/17 08:53:39;;;;;;;20.60;5.57;;;10.60;99.90;;;;;;5096772;28;20109;-76
2023/03/17 08:56:06;;;;;;;17.90;5.60;;;10.60;99.90;;;;;;5115583;28;20375;-74
2023/03/17 08:58:33;;;;;;;15.77;5.30;;;10.70;99.90;;;;;;5114764;28;20048;-74
2023/03/17 09:01:00;;;;;;;15.07;5.38;;;10.70;99.90;;;;;;5096555;28;20135;-75
2023/03/17 09:03:26;;;;;;;21.52;6.18;;;10.80;99.90;;;;;;5114474;28;20544;-74
2023/03/17 09:05:53;;;;;;;25.77;7.00;;;10.90;99.90;;;;;;5096489;28;20043;-75
2023/03/17 09:08:20;;;;;;;14.35;5.65;;;11.00;99.90;;;;;;5096576;28;20050;-75
2023/03/17 09:10:46;;;;;;;18.30;5.35;;;11.10;99.90;;;;;;5096114;28;20095;-74
2023/03/17 09:13:13;;;;;;;15.63;5.40;;;11.30;99.90;;;;;;5096524;28;20052;-75
2023/03/17 09:15:39;;;;;;;14.55;4.82;;;11.40;99.90;;;;;;5097237;28;20425;-74
2023/03/17 09:18:06;;;;;;;14.10;5.50;;;11.50;99.90;;;;;;5096091;28;20051;-76
2023/03/17 09:20:32;;;;;;;17.00;5.43;;;11.70;99.90;;;;;;5062622;28;20059;-75
2023/03/17 09:22:59;;;;;;;16.35;5.68;;;11.80;99.90;;;;;;5096662;28;20043;-75
2023/03/17 09:25:25;;;;;;;19.20;6.07;;;12.00;99.90;;;;;;5114695;28;20051;-74
2023/03/17 09:27:51;;;;;;;17.83;5.53;;;12.00;99.90;;;;;;5096670;28;20478;-73
2023/03/17 09:30:17;;;;;;;15.25;5.45;;;12.10;99.90;;;;;;5080194;28;20043;-75
2023/03/17 09:32:46;;;;;;;14.90;5.50;;;12.20;99.90;;;;;;5096854;28;20396;-78
2023/03/17 09:35:12;;;;;;;18.55;5.93;;;12.20;99.90;;;;;;5079977;28;20047;-75
2023/03/17 09:37:37;;;;;;;16.42;5.45;;;12.20;99.90;;;;;;5114654;28;20386;-75
2023/03/17 09:40:07;;;;;;;14.57;5.63;;;12.20;99.90;;;;;;5095698;28;20117;-75
2023/03/17 09:42:48;;;;;;;14.57;5.80;;;12.20;99.90;;;;;;5114313;28;20521;-75
2023/03/17 09:45:23;;;;;;;14.45;5.32;;;12.10;99.90;;;;;;5113694;28;20476;-73
2023/03/17 09:48:00;;;;;;;16.33;5.63;;;12.00;99.90;;;;;;5096735;28;20490;-75
2023/03/17 09:50:33;;;;;;;17.17;5.45;;;11.90;99.90;;;;;;5096324;28;20036;-74
2023/03/17 09:53:00;;;;;;;12.45;5.13;;;11.90;99.90;;;;;;5095365;28;20044;-74
2023/03/17 09:55:31;;;;;;;14.68;6.35;;;12.00;99.90;;;;;;5095880;28;20113;-74
2023/03/17 09:57:59;;;;;;;18.70;5.90;;;12.10;99.90;;;;;;5114335;28;20044;-76
2023/03/17 10:00:28;;;;;;;15.43;5.82;;;12.20;99.90;;;;;;5113693;28;20507;-75
2023/03/17 10:02:55;;;;;;;17.75;6.45;;;12.40;99.90;;;;;;5078849;28;20043;-75
2023/03/17 10:05:27;;;;;;;19.30;6.35;;;12.50;99.90;;;;;;5096260;28;20051;-75
2023/03/17 10:08:25;;;;;;;13.98;5.95;;;12.50;99.90;;;;;;5114354;28;20074;-74
2023/03/17 10:11:22;;;;;;;18.33;6.57;;;12.60;99.90;;;;;;5098909;28;20107;-76
2023/03/17 10:14:03;;;;;;;18.58;5.72;;;12.70;99.90;;;;;;5107841;28;20058;-75
2023/03/17 10:16:32;;;;;;;15.40;5.65;;;12.80;99.90;;;;;;5096372;28;20547;-74
2023/03/17 10:19:05;;;;;;;13.85;5.53;;;12.90;99.90;;;;;;5114095;28;20054;-75
2023/03/17 10:21:36;;;;;;;14.15;5.60;;;13.10;99.90;;;;;;5096228;28;20388;-74
2023/03/17 10:24:04;;;;;;;14.35;5.80;;;13.10;99.90;;;;;;5112837;28;20560;-75
2023/03/17 10:26:44;;;;;;;23.92;6.28;;;13.20;99.90;;;;;;5096089;28;20054;-75
2023/03/17 10:29:16;;;;;;;14.95;5.68;;;13.30;99.90;;;;;;5114920;28;20044;-74
2023/03/17 10:31:42;;;;;;;15.57;5.88;;;13.40;99.90;;;;;;5095800;28;20083;-74
2023/03/17 10:34:22;;;;;;;17.13;6.55;;;13.50;99.90;;;;;;5078980;28;20075;-73
2023/03/17 10:36:54;;;;;;;17.00;6.25;;;13.60;99.90;;;;;;5095756;28;20126;-75
2023/03/17 10:39:23;;;;;;;17.63;5.80;;;13.70;99.90;;;;;;5113147;28;20616;-75
2023/03/17 10:41:54;;;;;;;15.32;5.65;;;13.70;99.90;;;;;;5113450;28;20099;-73
2023/03/17 10:44:28;;;;;;;15.23;5.75;;;13.80;99.90;;;;;;5096172;28;20139;-75
2023/03/17 10:46:54;;;;;;;14.40;6.22;;;13.90;99.90;;;;;;5113403;28;20055;-76
2023/03/17 10:49:22;;;;;;;14.43;5.97;;;14.00;99.90;;;;;;5095343;28;20104;-75
2023/03/17 10:51:51;;;;;;;14.30;5.22;;;14.10;99.90;;;;;;5113320;28;20051;-74
2023/03/17 10:54:19;;;;;;;20.27;6.68;;;14.40;99.90;;;;;;5094926;28;20044;-73
2023/03/17 10:56:48;;;;;;;17.35;6.38;;;14.60;99.90;;;;;;5095173;28;20051;-74
2023/03/17 10:59:27;;;;;;;14.38;5.70;;;14.70;99.90;;;;;;5095807;28;20046;-73
2023/03/17 11:01:57;;;;;;;13.63;5.68;;;14.90;99.90;;;;;;5112998;28;20134;-76
2023/03/17 11:04:31;;;;;;;18.70;6.35;;;14.90;99.90;;;;;;5115090;28;20055;-77
2023/03/17 11:06:59;;;;;;;16.98;6.70;;;15.20;99.90;;;;;;5099647;28;20063;-74
2023/03/17 11:09:29;;;;;;;17.95;7.00;;;15.10;99.90;;;;;;5116728;28;20042;-74
2023/03/17 11:12:26;;;;;;;13.77;5.78;;;15.00;99.00;;;;;;5112868;28;20067;-74
2023/03/17 11:15:21;;;;;;;23.20;6.10;;;15.00;99.90;;;;;;5100488;28;20101;-73
2023/03/17 11:18:00;;;;;;;18.92;7.10;;;15.10;99.90;;;;;;5116751;28;20047;-75
2023/03/17 11:20:35;;;;;;;16.25;6.60;;;15.00;99.60;;;;;;5115688;28;20048;-74
2023/03/17 11:23:12;;;;;;;17.77;6.57;;;15.00;99.90;;;;;;5117232;28;20059;-75
2023/03/17 11:25:42;;;;;;;17.45;6.57;;;14.90;99.80;;;;;;5098517;28;20051;-75
2023/03/17 11:28:21;;;;;;;16.90;6.85;;;14.80;99.90;;;;;;5098523;28;20122;-75
2023/03/17 11:31:03;;;;;;;19.00;6.32;;;14.80;99.70;;;;;;5098706;28;20085;-74
2023/03/17 11:34:07;;;;;;;40.35;7.18;;;14.90;99.90;;;;;;5116505;28;20039;-74
2023/03/17 11:37:05;;;;;;;19.50;7.28;;;14.80;98.90;;;;;;5074594;28;20063;-75
2023/03/17 11:39:54;;;;;;;19.88;6.40;;;14.90;99.90;;;;;;5098116;28;20107;-75
2023/03/17 11:42:22;;;;;;;20.35;7.18;;;14.90;99.20;;;;;;5098604;28;20515;-75
2023/03/17 11:44:58;;;;;;;17.63;6.75;;;14.90;99.60;;;;;;5117081;28;20078;-75
2023/03/17 11:48:01;;;;;;;14.63;6.90;;;14.90;99.80;;;;;;5098589;28;20047;-74
2023/03/17 11:50:56;;;;;;;23.27;6.90;;;14.90;99.60;;;;;;5091858;28;20052;-75
2023/03/17 11:53:56;;;;;;;16.40;6.47;;;14.90;99.30;;;;;;5097854;28;20136;-74
2023/03/17 11:56:36;;;;;;;15.00;6.07;;;14.90;99.60;;;;;;5115653;28;20582;-75
2023/03/17 11:59:10;;;;;;;14.35;6.53;;;14.90;98.70;;;;;;5116733;28;20040;-75
2023/03/17 12:02:18;;;;;;;25.10;6.72;;;14.90;99.40;;;;;;5080741;28;20055;-75
2023/03/17 12:05:03;;;;;;;18.05;5.93;;;15.10;99.50;;;;;;5115894;28;20096;-74
2023/03/17 12:07:40;;;;;;;20.23;6.97;;;15.10;99.40;;;;;;5115969;28;20100;-75
2023/03/17 12:10:33;;;;;;;16.38;5.57;;;15.10;97.80;;;;;;5115610;28;20315;-75
2023/03/17 12:13:17;;;;;;;20.83;6.85;;;15.20;99.70;;;;;;5105097;28;20052;-73
2023/03/17 12:15:51;;;;;;;21.23;7.25;;;15.20;99.50;;;;;;5081035;28;20412;-76
2023/03/17 12:18:36;;;;;;;19.38;7.28;;;15.30;98.90;;;;;;5080430;28;20048;-75
2023/03/17 12:21:36;;;;;;;19.05;7.30;;;15.30;98.20;;;;;;5098017;28;20039;-73
2023/03/17 12:24:11;;;;;;;17.48;7.20;;;15.40;98.00;;;;;;5115607;28;20096;-75
2023/03/17 12:27:02;;;;;;;16.77;7.35;;;15.40;98.10;;;;;;5115487;28;20132;-75
2023/03/17 12:29:51;;;;;;;18.27;7.93;;;15.40;98.40;;;;;;5096396;28;20137;-74
2023/03/17 12:32:22;;;;;;;19.40;7.85;;;15.50;98.60;;;;;;5115326;28;20039;-74
2023/03/17 12:34:50;;;;;;;21.60;8.15;;;15.50;98.60;;;;;;5115558;28;20505;-76
2023/03/17 12:37:18;;;;;;;18.33;7.53;;;15.60;97.80;;;;;;5115302;28;20115;-76
2023/03/17 12:39:54;;;;;;;17.35;8.10;;;15.60;98.90;;;;;;5097799;28;20371;-73
2023/03/17 12:42:31;;;;;;;19.00;7.93;;;15.70;98.50;;;;;;5115455;28;20044;-76
2023/03/17 12:45:06;;;;;;;15.90;7.50;;;15.50;96.40;;;;;;5097172;28;20058;-73
2023/03/17 12:47:48;;;;;;;19.75;8.20;;;15.60;97.90;;;;;;5115168;28;20047;-74
2023/03/17 12:50:28;;;;;;;22.50;7.80;;;15.60;97.70;;;;;;5114910;28;20050;-77
2023/03/17 12:53:23;;;;;;;17.33;7.88;;;15.80;97.70;;;;;;5115159;28;20119;-75
2023/03/17 12:55:51;;;;;;;17.80;7.47;;;15.90;97.80;;;;;;5096992;28;20464;-75